createdAt,value
2023-01-27T00:00:24.784Z,55
2023-01-27T00:05:16.744Z,54.9
2023-01-27T00:10:08.574Z,54.9
2023-01-27T00:14:59.810Z,54.9
2023-01-27T00:19:51.785Z,54.8
2023-01-27T00:24:43.412Z,54.8
2023-01-27T00:29:50.913Z,54.8
2023-01-27T00:34:58.186Z,54.7
2023-01-27T00:39:50.301Z,54.7
2023-01-27T00:44:41.627Z,54.6
2023-01-27T00:49:47.763Z,54.6
2023-01-27T00:54:38.162Z,54.6
2023-01-27T00:59:44.909Z,54.6
2023-01-27T01:04:51.943Z,54.5
2023-01-27T01:09:59.031Z,54.4
2023-01-27T01:15:06.544Z,54.4
2023-01-27T01:20:13.355Z,54.4
2023-01-27T01:25:20.121Z,54.4
2023-01-27T01:30:43.407Z,54.3
2023-01-27T01:36:06.066Z,54.3
2023-01-27T01:41:31.064Z,54.3
2023-01-27T01:46:53.915Z,54.3
2023-01-27T01:52:16.163Z,54.2
2023-01-27T01:57:39.799Z,54.1
2023-01-27T02:03:03.373Z,54.1
2023-01-27T02:08:25.965Z,54.1
2023-01-27T02:13:47.573Z,54
2023-01-27T02:19:11.190Z,54
2023-01-27T02:24:18.089Z,54.4
2023-01-27T02:29:40.847Z,55.3
2023-01-27T02:34:21.121Z,56.2
2023-01-27T02:39:44.501Z,57.1
2023-01-27T02:45:06.931Z,58.1
2023-01-27T02:50:30.276Z,59.1
2023-01-27T02:55:52.379Z,60.1
2023-01-27T03:01:13.681Z,61
2023-01-27T03:06:37.401Z,61.3
2023-01-27T03:11:59.820Z,61.6
2023-01-27T03:17:07.155Z,61.9
2023-01-27T03:22:30.093Z,62.1
2023-01-27T03:27:52.836Z,62.3
2023-01-27T03:33:00.576Z,62.6
2023-01-27T03:38:23.835Z,62.7
2023-01-27T03:43:45.737Z,62.7
2023-01-27T03:49:08.783Z,62.7
2023-01-27T03:54:31.552Z,62.7
2023-01-27T03:59:54.027Z,62.6
2023-01-27T04:05:16.693Z,62.6
2023-01-27T04:10:38.970Z,62.6
2023-01-27T04:16:03.084Z,62.5
2023-01-27T04:21:09.262Z,62.5
2023-01-27T04:26:34.811Z,62.4
2023-01-27T04:32:08.519Z,62.4
2023-01-27T04:37:20.339Z,62.4
2023-01-27T04:42:44.204Z,62.3
2023-01-27T04:47:51.798Z,62.3
2023-01-27T04:52:58.392Z,62.3
2023-01-27T04:58:05.878Z,62.2
2023-01-27T05:03:13.398Z,62.2
2023-01-27T05:08:21.904Z,62.1
2023-01-27T05:13:29.359Z,62.1
2023-01-27T05:18:36.629Z,62.1
2023-01-27T05:23:44.444Z,62
2023-01-27T05:29:07.429Z,62
2023-01-27T05:34:30.844Z,61.9
2023-01-27T05:39:37.571Z,61.9
2023-01-27T05:45:00.971Z,61.9
2023-01-27T05:50:23.830Z,61.8
2023-01-27T05:55:48.446Z,61.8
2023-01-27T06:00:41.402Z,61.7
2023-01-27T06:05:50.231Z,61.6
2023-01-27T06:10:57.455Z,61.6
2023-01-27T06:16:05.809Z,61.6
2023-01-27T06:21:12.676Z,61.6
2023-01-27T06:26:35.447Z,61.5
2023-01-27T06:32:11.605Z,61.5
2023-01-27T06:37:34.518Z,61.4
2023-01-27T06:42:57.057Z,61.4
2023-01-27T06:48:20.669Z,61.3
2023-01-27T06:53:43.496Z,61.3
2023-01-27T06:59:08.605Z,61.3
2023-01-27T07:04:34.360Z,61.2
2023-01-27T07:10:08.909Z,61.1
2023-01-27T07:15:32.814Z,61.1
2023-01-27T07:20:57.919Z,61.1
2023-01-27T07:26:09.926Z,61
2023-01-27T07:31:38.665Z,60.9
2023-01-27T07:37:02.266Z,60.9
2023-01-27T07:42:27.847Z,60.9
2023-01-27T07:47:35.723Z,60.8
2023-01-27T07:52:42.976Z,60.8
2023-01-27T07:58:05.851Z,60.8
2023-01-27T08:03:28.906Z,60.7
2023-01-27T08:09:10.766Z,60.6
2023-01-27T08:14:34.034Z,60.6
2023-01-27T08:19:56.431Z,60.6
2023-01-27T08:25:20.152Z,60.5
2023-01-27T08:30:43.029Z,60.5
2023-01-27T08:36:05.594Z,60.4
2023-01-27T08:41:31.046Z,60.4
2023-01-27T08:46:53.851Z,60.4
2023-01-27T08:52:16.364Z,60.3
2023-01-27T08:57:39.290Z,60.3
2023-01-27T09:03:03.251Z,60.2
2023-01-27T09:08:25.650Z,60.1
2023-01-27T09:13:58.314Z,60.1
2023-01-27T09:19:20.878Z,60.1
2023-01-27T09:24:43.807Z,60
2023-01-27T09:30:15.298Z,60
2023-01-27T09:35:39.193Z,59.9
2023-01-27T09:41:01.824Z,59.9
2023-01-27T09:46:24.953Z,59.9
2023-01-27T09:51:52.199Z,59.8
2023-01-27T09:57:20.925Z,59.8
2023-01-27T10:02:43.851Z,59.7
2023-01-27T10:08:07.091Z,59.7
2023-01-27T10:13:30.267Z,59.6
2023-01-27T10:18:53.492Z,59.6
2023-01-27T10:24:16.143Z,59.6
2023-01-27T10:29:37.692Z,59.5
2023-01-27T10:35:01.502Z,59.4
2023-01-27T10:40:24.470Z,59.4
2023-01-27T10:45:47.168Z,59.4
2023-01-27T10:51:10.581Z,59.3
2023-01-27T10:56:32.599Z,59.3
2023-01-27T11:02:58.991Z,59.3
2023-01-27T11:08:22.007Z,59.2
2023-01-27T11:13:44.650Z,59.1
2023-01-27T11:19:07.065Z,59.1
2023-01-27T11:24:42.287Z,59.1
2023-01-27T11:30:06.826Z,59
2023-01-27T11:35:29.167Z,58.9
2023-01-27T11:41:06.998Z,58.9
2023-01-27T11:46:29.311Z,58.9
2023-01-27T11:51:51.729Z,58.8
2023-01-27T11:57:14.620Z,58.8
2023-01-27T12:02:38.651Z,58.8
2023-01-27T12:08:01.689Z,58.7
2023-01-27T12:13:27.921Z,58.6
2023-01-27T12:23:58.197Z,58.5
2023-01-27T12:29:21.048Z,58.5
2023-01-27T12:34:44.767Z,58.4
2023-01-27T12:40:07.873Z,58.4
2023-01-27T12:45:32.596Z,58.4
2023-01-27T12:50:55.320Z,58.3
2023-01-27T12:56:17.547Z,58.3
2023-01-27T13:01:43.725Z,58.2
2023-01-27T13:07:06.749Z,58.1
2023-01-27T13:12:29.439Z,58.1
2023-01-27T13:17:52.947Z,58.1
2023-01-27T13:22:44.577Z,58
2023-01-27T13:27:51.697Z,58
2023-01-27T13:33:27.631Z,57.9
2023-01-27T13:38:34.371Z,57.9
2023-01-27T13:43:57.264Z,57.9
2023-01-27T13:49:04.768Z,57.8
2023-01-27T13:59:38.228Z,57.7
2023-01-27T14:05:01.985Z,57.7
2023-01-27T14:10:10.754Z,57.6
2023-01-27T14:15:46.877Z,57.6
2023-01-27T14:20:54.561Z,57.6
2023-01-27T14:26:17.328Z,57.5
2023-01-27T14:31:40.732Z,57.4
2023-01-27T14:37:03.639Z,57.4
2023-01-27T14:42:26.709Z,57.4
2023-01-27T14:48:11.880Z,57.3
2023-01-27T14:53:34.890Z,57.3
2023-01-27T14:58:57.943Z,57.3
2023-01-27T15:04:21.716Z,57.2
2023-01-27T15:09:45.319Z,57.1
2023-01-27T15:14:51.983Z,57.1
2023-01-27T15:20:14.550Z,57.1
2023-01-27T15:25:37.400Z,57
2023-01-27T15:31:00.544Z,57
2023-01-27T15:36:24.807Z,56.9
2023-01-27T15:41:44.254Z,56.9
2023-01-27T15:47:09.989Z,56.8
2023-01-27T15:52:32.306Z,56.8
2023-01-27T15:57:57.216Z,56.8
2023-01-27T16:03:23.921Z,56.6
2023-01-27T16:08:48.111Z,56.6
2023-01-27T16:14:11.332Z,56.6
2023-01-27T16:19:18.599Z,56.5
2023-01-27T16:24:41.640Z,56.4
2023-01-27T16:30:04.987Z,56.4
2023-01-27T16:35:28.024Z,56.3
2023-01-27T16:40:50.912Z,56.2
2023-01-27T16:46:14.038Z,56.2
2023-01-27T16:51:49.111Z,56.1
2023-01-27T16:57:26.209Z,56.1
2023-01-27T17:03:02.350Z,56
2023-01-27T17:08:36.509Z,56
2023-01-27T17:14:29.804Z,55.9
2023-01-27T17:20:03.505Z,55.9
2023-01-27T17:25:26.559Z,55.8
2023-01-27T17:30:52.133Z,55.3
2023-01-27T17:36:27.717Z,55.1
2023-01-27T17:41:57.569Z,54.9
2023-01-27T17:47:25.524Z,54.9
2023-01-27T17:52:56.414Z,54.8
2023-01-27T17:58:27.346Z,54.8
2023-01-27T18:03:40.183Z,54.7
2023-01-27T18:08:49.514Z,54.6
2023-01-27T18:14:18.132Z,54.5
2023-01-27T18:19:45.658Z,54.5
2023-01-27T18:25:16.598Z,54.4
2023-01-27T18:30:30.179Z,54.4
2023-01-27T18:36:00.646Z,54.3
2023-01-27T18:41:17.597Z,54.3
2023-01-27T18:46:57.110Z,54.1
2023-01-27T18:52:37.837Z,54.1
2023-01-27T18:58:19.649Z,54
2023-01-27T19:03:57.506Z,53.9
2023-01-27T19:09:32.459Z,53.9
2023-01-27T19:15:01.286Z,53.8
2023-01-27T19:20:28.396Z,53.8
2023-01-27T19:25:44.849Z,53.8
2023-01-27T19:30:44.407Z,53.7
2023-01-27T19:36:13.860Z,53.6
2023-01-27T19:41:44.663Z,53.6
2023-01-27T19:47:12.959Z,53.5
2023-01-27T19:52:40.689Z,53.4
2023-01-27T19:58:07.413Z,53.4
2023-01-27T20:03:36.084Z,53.4
2023-01-27T20:09:05.544Z,53.3
2023-01-27T20:14:34.520Z,53.3
2023-01-27T20:20:03.722Z,53.1
2023-01-27T20:25:29.149Z,53
2023-01-27T20:30:55.772Z,52.9
2023-01-27T20:36:06.260Z,52.9
2023-01-27T20:41:30.506Z,52.9
2023-01-27T20:46:51.431Z,52.8
2023-01-27T20:52:14.521Z,52.8
2023-01-27T20:57:37.387Z,52.8
2023-01-27T21:03:00.098Z,52.7
2023-01-27T21:08:23.688Z,52.6
2023-01-27T21:13:46.489Z,52.6
2023-01-27T21:19:09.923Z,52.5
2023-01-27T21:24:17.688Z,52.4
2023-01-27T21:39:58.474Z,52.3
2023-01-27T21:45:21.160Z,52.3
2023-01-27T21:50:44.154Z,52.3
2023-01-27T21:56:07.397Z,52.1
2023-01-27T22:01:31.642Z,52.1
2023-01-27T22:06:55.399Z,52.1
2023-01-27T22:12:18.654Z,52
2023-01-27T22:27:54.003Z,51.9
2023-01-27T22:33:16.595Z,51.8
2023-01-27T22:38:40.072Z,51.8
2023-01-27T22:44:02.855Z,51.8
2023-01-27T22:49:25.442Z,51.7
2023-01-27T22:54:48.228Z,51.6
2023-01-27T23:00:09.835Z,51.6
2023-01-27T23:05:33.445Z,51.6
2023-01-27T23:10:55.927Z,51.5
2023-01-27T23:16:19.272Z,51.4
2023-01-27T23:21:41.560Z,51.4
2023-01-27T23:27:04.281Z,51.4
2023-01-27T23:32:33.875Z,51.3
2023-01-27T23:37:56.674Z,51.3
2023-01-27T23:43:37.177Z,51.3
2023-01-27T23:48:59.714Z,51.2
2023-01-27T23:54:22.287Z,51.1
2023-01-27T23:59:44.653Z,51.1
